sensor_id;sensor_type;location;lat;lon;timestamp;pressure;altitude;pressure_sealevel;temperature;humidity
18987;BME280;9627;59.236;18.142;2022-11-20T00:02:18;101316.16;;;-0.41;nan
18987;BME280;9627;59.236;18.142;2022-11-20T00:04:45;101320.63;;;-0.43;nan
18987;BME280;9627;59.236;18.142;2022-11-20T00:07:12;101311.47;;;-0.36;nan
18987;BME280;9627;59.236;18.142;2022-11-20T00:09:41;101308.31;;;-0.41;nan
18987;BME280;9627;59.236;18.142;2022-11-20T00:14:34;101293.81;;;-0.45;nan
18987;BME280;9627;59.236;18.142;2022-11-20T00:17:01;101293.53;;;-0.40;nan
18987;BME280;9627;59.236;18.142;2022-11-20T00:19:28;101296.00;;;-0.39;nan
18987;BME280;9627;59.236;18.142;2022-11-20T00:21:55;101294.44;;;-0.41;nan
18987;BME280;9627;59.236;18.142;2022-11-20T00:24:22;101294.53;;;-0.43;nan
18987;BME280;9627;59.236;18.142;2022-11-20T00:26:50;101290.16;;;-0.42;nan
18987;BME280;9627;59.236;18.142;2022-11-20T00:29:17;101291.94;;;-0.43;nan
18987;BME280;9627;59.236;18.142;2022-11-20T00:31:44;101291.81;;;-0.41;nan
18987;BME280;9627;59.236;18.142;2022-11-20T00:34:11;101292.56;;;-0.39;nan
18987;BME280;9627;59.236;18.142;2022-11-20T00:36:38;101283.91;;;-0.40;nan
18987;BME280;9627;59.236;18.142;2022-11-20T00:39:04;101277.75;;;-0.39;nan
18987;BME280;9627;59.236;18.142;2022-11-20T00:41:31;101278.28;;;-0.34;nan
18987;BME280;9627;59.236;18.142;2022-11-20T00:44:00;101278.28;;;-0.34;nan
18987;BME280;9627;59.236;18.142;2022-11-20T00:46:27;101271.94;;;-0.30;nan
18987;BME280;9627;59.236;18.142;2022-11-20T00:48:54;101274.44;;;-0.28;nan
18987;BME280;9627;59.236;18.142;2022-11-20T00:51:22;101273.63;;;-0.29;nan
18987;BME280;9627;59.236;18.142;2022-11-20T00:53:49;101266.50;;;-0.27;nan
18987;BME280;9627;59.236;18.142;2022-11-20T00:56:17;101255.34;;;-0.29;nan
18987;BME280;9627;59.236;18.142;2022-11-20T00:58:44;101243.84;;;-0.26;nan
18987;BME280;9627;59.236;18.142;2022-11-20T01:03:41;101245.63;;;-0.27;nan
18987;BME280;9627;59.236;18.142;2022-11-20T01:06:09;101248.03;;;-0.24;nan
18987;BME280;9627;59.236;18.142;2022-11-20T01:08:37;101243.00;;;-0.27;nan
18987;BME280;9627;59.236;18.142;2022-11-20T01:11:04;101241.13;;;-0.25;nan
18987;BME280;9627;59.236;18.142;2022-11-20T01:13:31;101233.53;;;-0.28;nan
18987;BME280;9627;59.236;18.142;2022-11-20T01:16:04;101246.47;;;-0.26;nan
18987;BME280;9627;59.236;18.142;2022-11-20T01:18:31;101244.81;;;-0.27;nan
18987;BME280;9627;59.236;18.142;2022-11-20T01:21:02;101234.38;;;-0.27;nan
18987;BME280;9627;59.236;18.142;2022-11-20T01:23:32;101245.72;;;-0.28;nan
18987;BME280;9627;59.236;18.142;2022-11-20T01:26:00;101243.44;;;-0.33;nan
18987;BME280;9627;59.236;18.142;2022-11-20T01:28:28;101236.53;;;-0.34;nan
18987;BME280;9627;59.236;18.142;2022-11-20T01:30:54;101237.50;;;-0.35;nan
18987;BME280;9627;59.236;18.142;2022-11-20T01:33:21;101224.44;;;-0.35;nan
18987;BME280;9627;59.236;18.142;2022-11-20T01:35:48;101223.50;;;-0.34;nan
18987;BME280;9627;59.236;18.142;2022-11-20T01:38:17;101225.91;;;-0.31;nan
18987;BME280;9627;59.236;18.142;2022-11-20T01:40:45;101220.03;;;-0.34;nan
18987;BME280;9627;59.236;18.142;2022-11-20T01:43:13;101212.03;;;-0.31;nan
18987;BME280;9627;59.236;18.142;2022-11-20T01:45:55;101205.03;;;-0.31;nan
18987;BME280;9627;59.236;18.142;2022-11-20T01:48:23;101203.25;;;-0.30;nan
18987;BME280;9627;59.236;18.142;2022-11-20T01:50:51;101204.09;;;-0.30;nan
18987;BME280;9627;59.236;18.142;2022-11-20T01:53:23;101192.72;;;-0.29;nan
18987;BME280;9627;59.236;18.142;2022-11-20T01:55:51;101199.81;;;-0.31;nan
18987;BME280;9627;59.236;18.142;2022-11-20T01:58:20;101193.66;;;-0.30;nan
18987;BME280;9627;59.236;18.142;2022-11-20T02:00:48;101191.03;;;-0.30;nan
18987;BME280;9627;59.236;18.142;2022-11-20T02:03:16;101188.22;;;-0.27;nan
18987;BME280;9627;59.236;18.142;2022-11-20T02:05:44;101185.59;;;-0.27;nan
18987;BME280;9627;59.236;18.142;2022-11-20T02:08:13;101183.22;;;-0.30;nan
18987;BME280;9627;59.236;18.142;2022-11-20T02:10:41;101179.56;;;-0.27;nan
18987;BME280;9627;59.236;18.142;2022-11-20T02:13:11;101175.41;;;-0.30;nan
18987;BME280;9627;59.236;18.142;2022-11-20T02:15:55;101174.47;;;-0.29;nan
18987;BME280;9627;59.236;18.142;2022-11-20T02:18:22;101165.91;;;-0.31;nan
18987;BME280;9627;59.236;18.142;2022-11-20T02:20:50;101162.34;;;-0.30;nan
18987;BME280;9627;59.236;18.142;2022-11-20T02:23:21;101156.22;;;-0.29;nan
18987;BME280;9627;59.236;18.142;2022-11-20T02:25:53;101153.69;;;-0.30;nan
18987;BME280;9627;59.236;18.142;2022-11-20T02:28:21;101151.81;;;-0.28;nan
18987;BME280;9627;59.236;18.142;2022-11-20T02:30:48;101144.50;;;-0.23;nan
18987;BME280;9627;59.236;18.142;2022-11-20T02:33:15;101148.03;;;-0.24;nan
18987;BME280;9627;59.236;18.142;2022-11-20T02:35:43;101137.59;;;-0.24;nan
18987;BME280;9627;59.236;18.142;2022-11-20T02:38:10;101144.81;;;-0.28;nan
18987;BME280;9627;59.236;18.142;2022-11-20T02:40:37;101143.34;;;-0.32;nan
18987;BME280;9627;59.236;18.142;2022-11-20T02:43:05;101138.88;;;-0.30;nan
18987;BME280;9627;59.236;18.142;2022-11-20T02:45:32;101134.28;;;-0.26;nan
18987;BME280;9627;59.236;18.142;2022-11-20T02:47:59;101130.94;;;-0.28;nan
18987;BME280;9627;59.236;18.142;2022-11-20T02:50:26;101135.41;;;-0.30;nan
18987;BME280;9627;59.236;18.142;2022-11-20T02:52:53;101126.84;;;-0.32;nan
18987;BME280;9627;59.236;18.142;2022-11-20T02:55:20;101128.72;;;-0.34;nan
18987;BME280;9627;59.236;18.142;2022-11-20T02:57:47;101126.13;;;-0.34;nan
18987;BME280;9627;59.236;18.142;2022-11-20T03:00:15;101120.28;;;-0.38;nan
18987;BME280;9627;59.236;18.142;2022-11-20T03:05:09;101111.84;;;-0.41;nan
18987;BME280;9627;59.236;18.142;2022-11-20T03:07:36;101112.69;;;-0.41;nan
18987;BME280;9627;59.236;18.142;2022-11-20T03:12:29;101118.63;;;-0.39;nan
18987;BME280;9627;59.236;18.142;2022-11-20T03:14:56;101109.84;;;-0.38;nan
18987;BME280;9627;59.236;18.142;2022-11-20T03:17:24;101106.09;;;-0.34;nan
18987;BME280;9627;59.236;18.142;2022-11-20T03:19:51;101108.59;;;-0.32;nan
18987;BME280;9627;59.236;18.142;2022-11-20T03:22:18;101100.69;;;-0.31;nan
18987;BME280;9627;59.236;18.142;2022-11-20T03:24:45;101106.72;;;-0.30;nan
18987;BME280;9627;59.236;18.142;2022-11-20T03:27:12;101100.69;;;-0.31;nan
18987;BME280;9627;59.236;18.142;2022-11-20T03:29:39;101092.03;;;-0.31;nan
18987;BME280;9627;59.236;18.142;2022-11-20T03:32:06;101096.41;;;-0.32;nan
18987;BME280;9627;59.236;18.142;2022-11-20T03:34:34;101099.00;;;-0.32;nan
18987;BME280;9627;59.236;18.142;2022-11-20T03:37:01;101090.44;;;-0.34;nan
18987;BME280;9627;59.236;18.142;2022-11-20T03:39:28;101084.50;;;-0.36;nan
18987;BME280;9627;59.236;18.142;2022-11-20T03:41:55;101095.66;;;-0.34;nan
18987;BME280;9627;59.236;18.142;2022-11-20T03:44:22;101090.56;;;-0.35;nan
18987;BME280;9627;59.236;18.142;2022-11-20T03:46:49;101085.84;;;-0.30;nan
18987;BME280;9627;59.236;18.142;2022-11-20T03:49:16;101088.47;;;-0.30;nan
18987;BME280;9627;59.236;18.142;2022-11-20T03:51:44;101076.97;;;-0.28;nan
18987;BME280;9627;59.236;18.142;2022-11-20T03:54:11;101069.16;;;-0.28;nan
18987;BME280;9627;59.236;18.142;2022-11-20T03:56:38;101065.50;;;-0.25;nan
18987;BME280;9627;59.236;18.142;2022-11-20T03:59:05;101060.47;;;-0.28;nan
18987;BME280;9627;59.236;18.142;2022-11-20T04:01:33;101053.38;;;-0.26;nan
18987;BME280;9627;59.236;18.142;2022-11-20T04:04:00;101058.84;;;-0.29;nan
18987;BME280;9627;59.236;18.142;2022-11-20T04:06:28;101056.22;;;-0.29;nan
18987;BME280;9627;59.236;18.142;2022-11-20T04:08:57;101044.94;;;-0.30;nan
18987;BME280;9627;59.236;18.142;2022-11-20T04:11:24;101050.38;;;-0.33;nan
18987;BME280;9627;59.236;18.142;2022-11-20T04:13:52;101047.78;;;-0.33;nan
18987;BME280;9627;59.236;18.142;2022-11-20T04:16:19;101054.53;;;-0.30;nan
18987;BME280;9627;59.236;18.142;2022-11-20T04:18:46;101051.94;;;-0.30;nan
18987;BME280;9627;59.236;18.142;2022-11-20T04:21:13;101048.41;;;-0.29;nan
18987;BME280;9627;59.236;18.142;2022-11-20T04:23:40;101042.22;;;-0.28;nan
18987;BME280;9627;59.236;18.142;2022-11-20T04:26:09;101036.91;;;-0.27;nan
18987;BME280;9627;59.236;18.142;2022-11-20T04:28:37;101031.78;;;-0.28;nan
18987;BME280;9627;59.236;18.142;2022-11-20T04:31:05;101029.06;;;-0.27;nan
18987;BME280;9627;59.236;18.142;2022-11-20T04:33:32;101016.97;;;-0.28;nan
18987;BME280;9627;59.236;18.142;2022-11-20T04:36:00;101018.13;;;-0.32;nan
18987;BME280;9627;59.236;18.142;2022-11-20T04:38:27;101022.44;;;-0.31;nan
18987;BME280;9627;59.236;18.142;2022-11-20T04:40:55;101020.75;;;-0.32;nan
18987;BME280;9627;59.236;18.142;2022-11-20T04:43:24;101013.63;;;-0.30;nan
18987;BME280;9627;59.236;18.142;2022-11-20T04:45:51;101007.59;;;-0.30;nan
18987;BME280;9627;59.236;18.142;2022-11-20T04:48:18;101012.72;;;-0.29;nan
18987;BME280;9627;59.236;18.142;2022-11-20T04:50:45;101013.94;;;-0.34;nan
18987;BME280;9627;59.236;18.142;2022-11-20T04:53:11;101010.31;;;-0.32;nan
18987;BME280;9627;59.236;18.142;2022-11-20T04:55:38;101001.63;;;-0.32;nan
18987;BME280;9627;59.236;18.142;2022-11-20T04:58:05;101003.31;;;-0.31;nan
18987;BME280;9627;59.236;18.142;2022-11-20T05:00:34;100996.53;;;-0.34;nan
18987;BME280;9627;59.236;18.142;2022-11-20T05:03:01;100995.50;;;-0.31;nan
18987;BME280;9627;59.236;18.142;2022-11-20T05:05:28;100986.72;;;-0.30;nan
18987;BME280;9627;59.236;18.142;2022-11-20T05:07:55;100988.59;;;-0.32;nan
18987;BME280;9627;59.236;18.142;2022-11-20T05:10:22;100989.44;;;-0.32;nan
18987;BME280;9627;59.236;18.142;2022-11-20T05:15:16;100985.19;;;-0.33;nan
18987;BME280;9627;59.236;18.142;2022-11-20T05:17:48;100985.91;;;-0.31;nan
18987;BME280;9627;59.236;18.142;2022-11-20T05:20:15;100971.41;;;-0.35;nan
18987;BME280;9627;59.236;18.142;2022-11-20T05:22:42;100976.38;;;-0.32;nan
18987;BME280;9627;59.236;18.142;2022-11-20T05:52:46;100956.69;;;-0.36;nan
18987;BME280;9627;59.236;18.142;2022-11-20T05:55:13;100947.09;;;-0.35;nan
18987;BME280;9627;59.236;18.142;2022-11-20T05:57:40;100949.81;;;-0.37;nan
18987;BME280;9627;59.236;18.142;2022-11-20T06:00:07;100946.25;;;-0.36;nan
18987;BME280;9627;59.236;18.142;2022-11-20T06:02:35;100937.59;;;-0.36;nan
18987;BME280;9627;59.236;18.142;2022-11-20T06:05:02;100934.88;;;-0.35;nan
18987;BME280;9627;59.236;18.142;2022-11-20T06:07:29;100934.78;;;-0.33;nan
18987;BME280;9627;59.236;18.142;2022-11-20T06:09:58;100932.16;;;-0.33;nan
18987;BME280;9627;59.236;18.142;2022-11-20T06:12:25;100951.25;;;-0.33;nan
18987;BME280;9627;59.236;18.142;2022-11-20T06:14:51;100942.47;;;-0.32;nan
18987;BME280;9627;59.236;18.142;2022-11-20T06:17:18;100934.88;;;-0.35;nan
18987;BME280;9627;59.236;18.142;2022-11-20T06:19:45;100946.84;;;-0.32;nan
18987;BME280;9627;59.236;18.142;2022-11-20T06:22:12;100951.25;;;-0.33;nan
18987;BME280;9627;59.236;18.142;2022-11-20T06:24:40;100948.75;;;-0.34;nan
18987;BME280;9627;59.236;18.142;2022-11-20T06:27:08;100942.47;;;-0.32;nan
18987;BME280;9627;59.236;18.142;2022-11-20T06:29:35;100938.31;;;-0.34;nan
18987;BME280;9627;59.236;18.142;2022-11-20T06:32:03;100927.88;;;-0.34;nan
18987;BME280;9627;59.236;18.142;2022-11-20T06:34:30;100940.00;;;-0.33;nan
18987;BME280;9627;59.236;18.142;2022-11-20T06:37:00;100938.94;;;-0.31;nan
18987;BME280;9627;59.236;18.142;2022-11-20T06:39:27;100928.59;;;-0.32;nan
18987;BME280;9627;59.236;18.142;2022-11-20T06:41:54;100931.44;;;-0.35;nan
18987;BME280;9627;59.236;18.142;2022-11-20T06:44:24;100914.94;;;-0.36;nan
18987;BME280;9627;59.236;18.142;2022-11-20T06:46:52;100925.25;;;-0.34;nan
18987;BME280;9627;59.236;18.142;2022-11-20T06:49:20;100924.44;;;-0.35;nan
18987;BME280;9627;59.236;18.142;2022-11-20T06:51:47;100910.25;;;-0.31;nan
18987;BME280;9627;59.236;18.142;2022-11-20T06:54:14;100905.97;;;-0.32;nan
18987;BME280;9627;59.236;18.142;2022-11-20T06:56:41;100903.34;;;-0.32;nan
18987;BME280;9627;59.236;18.142;2022-11-20T06:59:08;100906.81;;;-0.31;nan
18987;BME280;9627;59.236;18.142;2022-11-20T07:01:37;100905.13;;;-0.32;nan
18987;BME280;9627;59.236;18.142;2022-11-20T07:04:04;100893.88;;;-0.33;nan
18987;BME280;9627;59.236;18.142;2022-11-20T07:06:32;100894.59;;;-0.31;nan
18987;BME280;9627;59.236;18.142;2022-11-20T07:08:59;100895.31;;;-0.29;nan
18987;BME280;9627;59.236;18.142;2022-11-20T07:11:26;100896.72;;;-0.25;nan
18987;BME280;9627;59.236;18.142;2022-11-20T07:13:53;100894.97;;;-0.24;nan
18987;BME280;9627;59.236;18.142;2022-11-20T07:16:21;100896.72;;;-0.25;nan
18987;BME280;9627;59.236;18.142;2022-11-20T07:18:53;100881.09;;;-0.25;nan
18987;BME280;9627;59.236;18.142;2022-11-20T07:21:26;100880.28;;;-0.25;nan
18987;BME280;9627;59.236;18.142;2022-11-20T07:23:54;100881.09;;;-0.25;nan
18987;BME280;9627;59.236;18.142;2022-11-20T07:26:22;100880.16;;;-0.24;nan
18987;BME280;9627;59.236;18.142;2022-11-20T07:28:53;100887.13;;;-0.24;nan
18987;BME280;9627;59.236;18.142;2022-11-20T07:43:42;100872.59;;;-0.16;nan
18987;BME280;9627;59.236;18.142;2022-11-20T07:46:18;100875.09;;;-0.14;nan
18987;BME280;9627;59.236;18.142;2022-11-20T07:49:18;100870.00;;;-0.16;nan
18987;BME280;9627;59.236;18.142;2022-11-20T08:10:37;100842.00;;;-0.14;nan
18987;BME280;9627;59.236;18.142;2022-11-20T08:13:24;100839.28;;;-0.12;nan
18987;BME280;9627;59.236;18.142;2022-11-20T08:16:20;100836.81;;;-0.14;nan
18987;BME280;9627;59.236;18.142;2022-11-20T08:18:48;100842.94;;;-0.15;nan
18987;BME280;9627;59.236;18.142;2022-11-20T08:21:16;100841.91;;;-0.12;nan
18987;BME280;9627;59.236;18.142;2022-11-20T08:28:48;100831.56;;;-0.14;nan
18987;BME280;9627;59.236;18.142;2022-11-20T08:31:24;100832.38;;;-0.13;nan
18987;BME280;9627;59.236;18.142;2022-11-20T08:34:25;100825.41;;;-0.13;nan
18987;BME280;9627;59.236;18.142;2022-11-20T08:57:17;100807.38;;;-0.16;nan
18987;BME280;9627;59.236;18.142;2022-11-20T08:59:49;100803.69;;;-0.13;nan
18987;BME280;9627;59.236;18.142;2022-11-20T09:02:18;100803.59;;;-0.12;nan
18987;BME280;9627;59.236;18.142;2022-11-20T09:04:47;100794.69;;;-0.09;nan
18987;BME280;9627;59.236;18.142;2022-11-20T09:07:26;100789.25;;;-0.06;nan
18987;BME280;9627;59.236;18.142;2022-11-20T09:09:58;100783.06;;;-0.05;nan
18987;BME280;9627;59.236;18.142;2022-11-20T09:21:54;100772.56;;;0.08;nan
18987;BME280;9627;59.236;18.142;2022-11-20T09:30:25;100767.94;;;0.11;nan
18987;BME280;9627;59.236;18.142;2022-11-20T09:33:06;100764.16;;;0.15;nan
18987;BME280;9627;59.236;18.142;2022-11-20T09:35:35;100760.69;;;0.15;nan
18987;BME280;9627;59.236;18.142;2022-11-20T09:38:08;100758.94;;;0.15;nan
18987;BME280;9627;59.236;18.142;2022-11-20T09:46:02;100748.81;;;0.11;nan
18987;BME280;9627;59.236;18.142;2022-11-20T09:48:43;100743.34;;;0.14;nan
18987;BME280;9627;59.236;18.142;2022-11-20T09:53:49;100722.97;;;0.19;nan
18987;BME280;9627;59.236;18.142;2022-11-20T09:56:23;100727.34;;;0.18;nan
18987;BME280;9627;59.236;18.142;2022-11-20T10:01:22;100723.91;;;0.18;nan
18987;BME280;9627;59.236;18.142;2022-11-20T10:04:08;100725.69;;;0.17;nan
18987;BME280;9627;59.236;18.142;2022-11-20T10:06:37;100716.31;;;0.15;nan
18987;BME280;9627;59.236;18.142;2022-11-20T10:11:38;100710.59;;;0.10;nan
18987;BME280;9627;59.236;18.142;2022-11-20T10:14:14;100714.75;;;0.12;nan
18987;BME280;9627;59.236;18.142;2022-11-20T10:16:43;100700.41;;;0.18;nan
18987;BME280;9627;59.236;18.142;2022-11-20T10:19:18;100701.84;;;0.11;nan
18987;BME280;9627;59.236;18.142;2022-11-20T10:21:53;100694.13;;;0.09;nan
18987;BME280;9627;59.236;18.142;2022-11-20T10:27:08;100702.56;;;0.02;nan
18987;BME280;9627;59.236;18.142;2022-11-20T10:29:54;100703.84;;;-0.04;nan
18987;BME280;9627;59.236;18.142;2022-11-20T10:32:28;100696.13;;;-0.06;nan
18987;BME280;9627;59.236;18.142;2022-11-20T10:34:59;100699.94;;;0.02;nan
18987;BME280;9627;59.236;18.142;2022-11-20T10:37:30;100685.81;;;0.04;nan
18987;BME280;9627;59.236;18.142;2022-11-20T10:49:57;100674.91;;;0.10;nan
18987;BME280;9627;59.236;18.142;2022-11-20T10:52:26;100664.59;;;0.09;nan
18987;BME280;9627;59.236;18.142;2022-11-20T10:54:55;100669.81;;;0.09;nan
18987;BME280;9627;59.236;18.142;2022-11-20T10:57:29;100672.28;;;0.10;nan
18987;BME280;9627;59.236;18.142;2022-11-20T11:00:02;100672.53;;;0.07;nan
18987;BME280;9627;59.236;18.142;2022-11-20T11:02:31;100664.91;;;0.04;nan
18987;BME280;9627;59.236;18.142;2022-11-20T11:05:01;100655.09;;;0.08;nan
18987;BME280;9627;59.236;18.142;2022-11-20T11:07:37;100658.91;;;0.04;nan
18987;BME280;9627;59.236;18.142;2022-11-20T11:10:14;100650.69;;;-0.03;nan
18987;BME280;9627;59.236;18.142;2022-11-20T11:12:43;100645.84;;;0.04;nan
18987;BME280;9627;59.236;18.142;2022-11-20T11:15:11;100647.97;;;-0.02;nan
18987;BME280;9627;59.236;18.142;2022-11-20T11:17:45;100631.00;;;0.04;nan
18987;BME280;9627;59.236;18.142;2022-11-20T11:20:17;100637.06;;;0.05;nan
18987;BME280;9627;59.236;18.142;2022-11-20T11:22:45;100620.34;;;0.07;nan
18987;BME280;9627;59.236;18.142;2022-11-20T11:25:19;100616.19;;;0.05;nan
18987;BME280;9627;59.236;18.142;2022-11-20T11:27:47;100608.34;;;0.05;nan
18987;BME280;9627;59.236;18.142;2022-11-20T11:30:15;100600.97;;;0.10;nan
18987;BME280;9627;59.236;18.142;2022-11-20T11:32:43;100593.13;;;0.10;nan
18987;BME280;9627;59.236;18.142;2022-11-20T11:35:20;100596.47;;;0.12;nan
18987;BME280;9627;59.236;18.142;2022-11-20T11:37:47;100593.63;;;0.15;nan
18987;BME280;9627;59.236;18.142;2022-11-20T11:40:16;100593.50;;;0.16;nan
18987;BME280;9627;59.236;18.142;2022-11-20T11:42:44;100585.66;;;0.16;nan
18987;BME280;9627;59.236;18.142;2022-11-20T11:45:13;100570.72;;;0.18;nan
18987;BME280;9627;59.236;18.142;2022-11-20T11:47:43;100576.19;;;0.15;nan
18987;BME280;9627;59.236;18.142;2022-11-20T11:50:14;100568.47;;;0.14;nan
18987;BME280;9627;59.236;18.142;2022-11-20T11:52:45;100565.97;;;0.12;nan
18987;BME280;9627;59.236;18.142;2022-11-20T11:55:17;100564.22;;;0.13;nan
18987;BME280;9627;59.236;18.142;2022-11-20T11:57:46;100570.13;;;0.15;nan
18987;BME280;9627;59.236;18.142;2022-11-20T12:00:14;100566.22;;;0.09;nan
18987;BME280;9627;59.236;18.142;2022-11-20T12:02:46;100561.00;;;0.09;nan
18987;BME280;9627;59.236;18.142;2022-11-20T12:05:18;100554.38;;;0.05;nan
18987;BME280;9627;59.236;18.142;2022-11-20T12:07:47;100555.69;;;-0.01;nan
18987;BME280;9627;59.236;18.142;2022-11-20T12:10:20;100560.56;;;-0.07;nan
18987;BME280;9627;59.236;18.142;2022-11-20T12:12:48;100553.31;;;-0.15;nan
18987;BME280;9627;59.236;18.142;2022-11-20T12:15:21;100554.63;;;-0.20;nan
18987;BME280;9627;59.236;18.142;2022-11-20T12:17:49;100568.88;;;-0.24;nan
18987;BME280;9627;59.236;18.142;2022-11-20T12:20:16;100553.22;;;-0.24;nan
18987;BME280;9627;59.236;18.142;2022-11-20T12:22:46;100561.53;;;-0.19;nan
18987;BME280;9627;59.236;18.142;2022-11-20T12:25:19;100542.91;;;-0.26;nan
18987;BME280;9627;59.236;18.142;2022-11-20T12:27:58;100549.66;;;-0.23;nan
18987;BME280;9627;59.236;18.142;2022-11-20T12:30:28;100545.75;;;-0.29;nan
18987;BME280;9627;59.236;18.142;2022-11-20T12:33:04;100540.63;;;-0.30;nan
18987;BME280;9627;59.236;18.142;2022-11-20T12:41:12;100540.53;;;-0.29;nan
18987;BME280;9627;59.236;18.142;2022-11-20T12:44:05;100532.00;;;-0.31;nan
18987;BME280;9627;59.236;18.142;2022-11-20T12:46:58;100537.81;;;-0.27;nan
18987;BME280;9627;59.236;18.142;2022-11-20T12:49:31;100528.44;;;-0.30;nan
18987;BME280;9627;59.236;18.142;2022-11-20T12:52:10;100525.81;;;-0.30;nan
18987;BME280;9627;59.236;18.142;2022-11-20T12:57:26;100521.56;;;-0.31;nan
18987;BME280;9627;59.236;18.142;2022-11-20T13:00:00;100514.69;;;-0.32;nan
18987;BME280;9627;59.236;18.142;2022-11-20T13:02:33;100516.22;;;-0.29;nan
18987;BME280;9627;59.236;18.142;2022-11-20T13:05:16;100513.97;;;-0.34;nan
18987;BME280;9627;59.236;18.142;2022-11-20T13:07:44;100508.16;;;-0.37;nan
18987;BME280;9627;59.236;18.142;2022-11-20T13:10:13;100496.91;;;-0.38;nan
18987;BME280;9627;59.236;18.142;2022-11-20T13:12:45;100500.47;;;-0.39;nan
18987;BME280;9627;59.236;18.142;2022-11-20T13:15:17;100496.09;;;-0.38;nan
18987;BME280;9627;59.236;18.142;2022-11-20T13:17:51;100493.56;;;-0.40;nan
18987;BME280;9627;59.236;18.142;2022-11-20T13:20:21;100498.00;;;-0.40;nan
18987;BME280;9627;59.236;18.142;2022-11-20T13:22:55;100488.38;;;-0.40;nan
18987;BME280;9627;59.236;18.142;2022-11-20T13:25:24;100480.34;;;-0.48;nan
18987;BME280;9627;59.236;18.142;2022-11-20T13:27:54;100473.31;;;-0.47;nan
18987;BME280;9627;59.236;18.142;2022-11-20T13:30:22;100456.16;;;-0.50;nan
18987;BME280;9627;59.236;18.142;2022-11-20T13:32:50;100466.81;;;-0.53;nan
18987;BME280;9627;59.236;18.142;2022-11-20T13:35:25;100458.41;;;-0.56;nan
18987;BME280;9627;59.236;18.142;2022-11-20T13:37:59;100459.47;;;-0.59;nan
18987;BME280;9627;59.236;18.142;2022-11-20T13:40:26;100453.66;;;-0.62;nan
18987;BME280;9627;59.236;18.142;2022-11-20T13:43:04;100434.56;;;-0.63;nan
18987;BME280;9627;59.236;18.142;2022-11-20T13:45:34;100449.41;;;-0.63;nan
18987;BME280;9627;59.236;18.142;2022-11-20T13:48:02;100426.88;;;-0.64;nan
18987;BME280;9627;59.236;18.142;2022-11-20T13:50:40;100427.59;;;-0.62;nan
18987;BME280;9627;59.236;18.142;2022-11-20T13:53:15;100433.19;;;-0.67;nan
18987;BME280;9627;59.236;18.142;2022-11-20T13:55:49;100426.06;;;-0.65;nan
18987;BME280;9627;59.236;18.142;2022-11-20T13:58:26;100429.63;;;-0.66;nan
18987;BME280;9627;59.236;18.142;2022-11-20T14:01:00;100420.38;;;-0.70;nan
18987;BME280;9627;59.236;18.142;2022-11-20T14:03:29;100406.63;;;-0.72;nan
18987;BME280;9627;59.236;18.142;2022-11-20T14:05:58;100423.22;;;-0.73;nan
18987;BME280;9627;59.236;18.142;2022-11-20T14:08:28;100422.66;;;-0.76;nan
18987;BME280;9627;59.236;18.142;2022-11-20T14:11:12;100382.72;;;-0.77;nan
18987;BME280;9627;59.236;18.142;2022-11-20T14:13:59;100429.63;;;-0.77;nan
18987;BME280;9627;59.236;18.142;2022-11-20T14:16:28;100405.47;;;-0.79;nan
18987;BME280;9627;59.236;18.142;2022-11-20T14:18:56;100412.56;;;-0.81;nan
18987;BME280;9627;59.236;18.142;2022-11-20T14:21:25;100404.28;;;-0.86;nan
18987;BME280;9627;59.236;18.142;2022-11-20T14:23:53;100402.13;;;-0.81;nan
18987;BME280;9627;59.236;18.142;2022-11-20T14:26:21;100396.94;;;-0.92;nan
18987;BME280;9627;59.236;18.142;2022-11-20T14:28:49;100410.09;;;-0.93;nan
18987;BME280;9627;59.236;18.142;2022-11-20T14:31:21;100389.94;;;-0.92;nan
18987;BME280;9627;59.236;18.142;2022-11-20T14:33:50;100376.56;;;-0.87;nan
18987;BME280;9627;59.236;18.142;2022-11-20T14:36:17;100374.78;;;-0.86;nan
18987;BME280;9627;59.236;18.142;2022-11-20T14:38:48;100372.28;;;-0.77;nan
18987;BME280;9627;59.236;18.142;2022-11-20T14:41:16;100374.91;;;-0.88;nan
18987;BME280;9627;59.236;18.142;2022-11-20T14:43:45;100379.41;;;-0.90;nan
18987;BME280;9627;59.236;18.142;2022-11-20T14:46:12;100368.28;;;-0.92;nan
18987;BME280;9627;59.236;18.142;2022-11-20T14:48:43;100377.84;;;-0.81;nan
18987;BME280;9627;59.236;18.142;2022-11-20T14:51:12;100361.50;;;-0.83;nan
18987;BME280;9627;59.236;18.142;2022-11-20T14:53:49;100357.25;;;-0.84;nan
18987;BME280;9627;59.236;18.142;2022-11-20T14:56:20;100332.69;;;-0.82;nan
18987;BME280;9627;59.236;18.142;2022-11-20T14:58:54;100362.34;;;-0.83;nan
18987;BME280;9627;59.236;18.142;2022-11-20T15:01:27;100368.38;;;-0.82;nan
18987;BME280;9627;59.236;18.142;2022-11-20T15:04:05;100358.91;;;-0.83;nan
18987;BME280;9627;59.236;18.142;2022-11-20T15:06:35;100346.69;;;-0.83;nan
18987;BME280;9627;59.236;18.142;2022-11-20T15:09:02;100359.47;;;-0.80;nan
18987;BME280;9627;59.236;18.142;2022-11-20T15:11:31;100358.19;;;-0.74;nan
18987;BME280;9627;59.236;18.142;2022-11-20T15:14:02;100350.59;;;-0.77;nan
18987;BME280;9627;59.236;18.142;2022-11-20T15:16:30;100341.94;;;-0.78;nan
18987;BME280;9627;59.236;18.142;2022-11-20T15:18:57;100323.81;;;-0.79;nan
18987;BME280;9627;59.236;18.142;2022-11-20T15:21:25;100329.16;;;-0.81;nan
18987;BME280;9627;59.236;18.142;2022-11-20T15:23:52;100331.78;;;-0.81;nan
18987;BME280;9627;59.236;18.142;2022-11-20T15:26:21;100318.13;;;-0.73;nan
18987;BME280;9627;59.236;18.142;2022-11-20T15:28:50;100333.19;;;-0.77;nan
18987;BME280;9627;59.236;18.142;2022-11-20T15:31:18;100319.09;;;-0.74;nan
18987;BME280;9627;59.236;18.142;2022-11-20T15:33:45;100305.94;;;-0.73;nan
18987;BME280;9627;59.236;18.142;2022-11-20T15:36:13;100303.19;;;-0.71;nan
18987;BME280;9627;59.236;18.142;2022-11-20T15:38:42;100306.38;;;-0.68;nan
18987;BME280;9627;59.236;18.142;2022-11-20T15:41:10;100304.47;;;-0.66;nan
18987;BME280;9627;59.236;18.142;2022-11-20T15:43:37;100292.41;;;-0.67;nan
18987;BME280;9627;59.236;18.142;2022-11-20T15:46:05;100295.97;;;-0.68;nan
18987;BME280;9627;59.236;18.142;2022-11-20T15:48:37;100286.25;;;-0.66;nan
18987;BME280;9627;59.236;18.142;2022-11-20T15:51:06;100289.28;;;-0.61;nan
18987;BME280;9627;59.236;18.142;2022-11-20T15:53:34;100272.94;;;-0.63;nan